Time;durP1;ratioP1;P1;durP2;ratioP2;P2;SDS_P1;SDS_P2;PMS_P1;PMS_P2;Temp;Humidity;BMP_temperature;BMP_pressure;BME280_temperature;BME280_humidity;BME280_pressure;Samples;Min_cycle;Max_cycle;Signal;HPM_P1;HPM_P2
2021/01/11 00:00:32;;;;;;;40.85;30.63;;;-1.90;68.70;-0.20;101225.00;;;;5089262;28;20501;-74
2021/01/11 00:03:01;;;;;;;37.83;30.40;;;-1.90;68.70;-0.20;101221.00;;;;5099448;28;20473;-74
2021/01/11 00:05:28;;;;;;;37.55;30.08;;;-1.90;69.00;-0.20;101222.00;;;;5097023;28;20772;-75
2021/01/11 00:07:55;;;;;;;36.15;29.15;;;-1.90;69.20;-0.20;101212.00;;;;5088842;28;20519;-75
2021/01/11 00:10:24;;;;;;;36.83;29.33;;;-1.90;69.40;-0.20;101228.00;;;;5089158;28;21204;-76
2021/01/11 00:12:51;;;;;;;36.72;29.90;;;-1.90;69.50;-0.20;101218.00;;;;5090551;28;20452;-74
2021/01/11 00:15:18;;;;;;;38.72;30.80;;;-1.90;69.10;-0.20;101227.00;;;;5085167;28;20759;-73
2021/01/11 00:17:46;;;;;;;38.05;31.00;;;-1.90;68.70;-0.30;101197.00;;;;5087569;28;20417;-74
2021/01/11 00:20:14;;;;;;;37.42;30.52;;;-2.00;68.60;-0.30;101233.00;;;;5089470;28;20424;-74
2021/01/11 00:22:43;;;;;;;36.97;28.98;;;-2.00;68.60;-0.30;101205.00;;;;5090502;28;20413;-75
2021/01/11 00:25:12;;;;;;;35.45;28.90;;;-2.00;68.60;-0.30;101203.00;;;;5106151;28;20422;-74
2021/01/11 00:27:42;;;;;;;42.25;29.88;;;-2.00;68.80;-0.20;101214.00;;;;5090114;28;20442;-74
2021/01/11 00:30:11;;;;;;;38.10;29.33;;;-2.00;68.80;-0.20;101213.00;;;;5088578;28;20512;-74
2021/01/11 00:32:40;;;;;;;37.25;29.90;;;-2.00;68.60;-0.30;101216.00;;;;5089480;28;20422;-74
2021/01/11 00:35:09;;;;;;;36.97;28.48;;;-2.00;68.60;-0.30;101204.00;;;;5095420;28;20467;-74
2021/01/11 00:37:37;;;;;;;35.43;27.80;;;-2.00;68.60;-0.30;101210.00;;;;5038827;28;1311962;-74
2021/01/11 00:40:07;;;;;;;37.47;29.55;;;-2.00;68.60;-0.30;101204.00;;;;5111095;28;20425;-73
2021/01/11 00:42:35;;;;;;;35.30;28.50;;;-2.10;68.00;-0.40;101197.00;;;;5104256;28;20390;-74
2021/01/11 00:45:08;;;;;;;37.33;29.08;;;-2.20;68.10;-0.50;101203.00;;;;5099276;28;20505;-73
2021/01/11 00:47:39;;;;;;;35.38;28.63;;;-2.30;68.40;-0.40;101222.00;;;;5102374;28;20413;-74
2021/01/11 00:50:10;;;;;;;34.40;27.90;;;-2.30;68.40;-0.40;101214.00;;;;5109649;28;20509;-73
2021/01/11 00:52:39;;;;;;;37.25;28.77;;;-2.20;68.40;-0.40;101215.00;;;;5096173;28;20518;-74
2021/01/11 00:55:12;;;;;;;33.75;27.92;;;-2.20;68.40;-0.50;101200.00;;;;5087571;28;20476;-74
2021/01/11 00:57:46;;;;;;;34.42;28.70;;;-2.20;68.40;-0.50;101210.00;;;;5088622;28;20430;-73
2021/01/11 01:00:21;;;;;;;37.58;29.75;;;-2.30;68.40;-0.50;101226.00;;;;5082752;28;20443;-73
2021/01/11 01:03:00;;;;;;;42.05;32.03;;;-2.40;68.30;-0.60;101212.00;;;;5102658;28;20835;-73
2021/01/11 01:05:27;;;;;;;43.60;33.88;;;-2.40;68.70;-0.60;101225.00;;;;5078239;28;20942;-73
2021/01/11 01:07:54;;;;;;;42.65;33.22;;;-2.50;69.30;-0.70;101239.00;;;;5082634;28;20962;-73
2021/01/11 01:10:21;;;;;;;44.70;34.33;;;-2.50;69.30;-0.70;101220.00;;;;5097629;28;20428;-72
2021/01/11 01:12:49;;;;;;;41.88;32.10;;;-2.50;70.20;-0.70;101238.00;;;;5097101;28;20430;-74
2021/01/11 01:15:16;;;;;;;39.83;32.05;;;-2.60;70.80;-0.70;101245.00;;;;5083259;28;20416;-74
2021/01/11 01:17:44;;;;;;;40.55;31.70;;;-2.40;70.90;-0.60;101239.00;;;;5094687;28;20415;-74
2021/01/11 01:20:15;;;;;;;36.30;29.13;;;-2.40;70.30;-0.60;101222.00;;;;5089705;28;20429;-74
2021/01/11 01:22:44;;;;;;;35.22;28.67;;;-2.40;69.60;-0.60;101243.00;;;;5090736;28;20418;-74
2021/01/11 01:25:13;;;;;;;35.67;29.58;;;-2.40;69.80;-0.60;101248.00;;;;5090397;28;20420;-74
2021/01/11 01:27:40;;;;;;;37.90;29.95;;;-2.30;69.90;-0.60;101247.00;;;;5102894;28;20451;-74
2021/01/11 01:30:10;;;;;;;37.25;29.63;;;-2.20;69.30;-0.60;101264.00;;;;5082527;28;20440;-74
2021/01/11 01:32:39;;;;;;;36.13;30.13;;;-2.30;68.40;-0.60;101246.00;;;;5090823;28;20460;-74
2021/01/11 01:35:11;;;;;;;37.17;29.30;;;-2.30;69.00;-0.70;101235.00;;;;5078523;28;20423;-73
2021/01/11 01:37:39;;;;;;;35.67;29.23;;;-2.40;67.90;-0.70;101263.00;;;;5076418;28;20422;-74
2021/01/11 01:40:08;;;;;;;34.53;28.25;;;-2.40;67.70;-0.70;101239.00;;;;5089972;28;20808;-76
2021/01/11 01:42:36;;;;;;;34.90;28.83;;;-2.40;67.60;-0.70;101251.00;;;;5084917;28;20445;-74
2021/01/11 01:45:05;;;;;;;32.45;27.30;;;-2.40;68.30;-0.70;101271.00;;;;5105894;28;20406;-74
2021/01/11 01:47:34;;;;;;;32.57;26.97;;;-2.30;68.40;-0.60;101263.00;;;;5105416;28;20916;-73
2021/01/11 01:50:03;;;;;;;33.25;26.70;;;-2.30;68.40;-0.60;101252.00;;;;5085476;28;20425;-73
2021/01/11 01:52:31;;;;;;;32.53;26.70;;;-2.30;68.40;-0.60;101256.00;;;;5089210;28;20506;-73
2021/01/11 01:54:59;;;;;;;33.78;25.70;;;-2.20;68.40;-0.60;101247.00;;;;5105059;28;20842;-72
2021/01/11 01:57:26;;;;;;;33.47;26.73;;;-2.20;68.50;-0.60;101258.00;;;;5109613;28;20514;-74
2021/01/11 01:59:54;;;;;;;33.97;26.95;;;-2.20;68.40;-0.60;101250.00;;;;5145043;27;20414;-75
2021/01/11 02:02:21;;;;;;;33.28;27.05;;;-2.20;68.40;-0.60;101256.00;;;;5110368;28;20412;-73
2021/01/11 02:04:49;;;;;;;32.92;27.17;;;-2.30;68.00;-0.60;101243.00;;;;5104253;28;20419;-73
2021/01/11 02:07:35;;;;;;;33.05;26.67;;;-2.30;68.00;-0.60;101243.00;;;;5093791;28;20935;-73
2021/01/11 02:10:13;;;;;;;30.13;26.00;;;-2.30;68.20;-0.60;101248.00;;;;5110480;28;20418;-73
2021/01/11 02:13:01;;;;;;;32.55;26.50;;;-2.30;68.30;-0.60;101230.00;;;;5115249;28;20469;-74
2021/01/11 02:15:42;;;;;;;29.73;25.15;;;-2.20;68.40;-0.60;66118.00;;;;5107083;28;20956;-74
2021/01/11 02:18:15;;;;;;;29.70;24.50;;;-2.20;68.40;-0.60;101223.00;;;;5107677;28;20461;-74
2021/01/11 02:21:09;;;;;;;30.75;24.85;;;-2.20;69.00;-0.60;101246.00;;;;5096748;28;20424;-74
2021/01/11 02:24:42;;;;;;;31.95;25.38;;;-2.20;68.40;-0.60;101231.00;;;;5060577;28;20894;-74
2021/01/11 02:27:27;;;;;;;32.08;25.35;;;-2.30;68.40;-0.60;101212.00;;;;5059932;28;20418;-74
2021/01/11 02:30:09;;;;;;;28.37;24.00;;;-2.30;68.40;217.30;156395.00;;;;5088950;28;20750;-75
2021/01/11 02:32:42;;;;;;;30.67;25.98;;;-2.30;68.40;-0.60;101212.00;;;;5089349;28;20897;-74
2021/01/11 02:35:11;;;;;;;30.60;24.10;;;-2.30;68.40;-0.70;101216.00;;;;5090299;28;20899;-74
2021/01/11 02:37:39;;;;;;;30.70;25.00;;;-2.40;68.30;-0.60;101204.00;;;;5085263;28;20423;-74
2021/01/11 02:40:09;;;;;;;31.00;25.50;;;-2.40;68.50;-0.70;101191.00;;;;5099813;28;20495;-74
2021/01/11 02:42:38;;;;;;;31.10;25.30;;;-2.40;68.70;217.30;156361.00;;;;5093891;28;20427;-74
2021/01/11 02:45:09;;;;;;;29.55;24.75;;;-2.40;68.70;-0.70;101223.00;;;;5103923;28;20418;-74
2021/01/11 02:47:54;;;;;;;30.38;25.50;;;-2.40;68.80;-0.70;101208.00;;;;5093361;28;20441;-73
2021/01/11 02:50:26;;;;;;;29.23;24.50;;;-2.50;68.20;-0.70;101220.00;;;;5094349;28;20430;-73
2021/01/11 02:53:10;;;;;;;31.20;24.95;;;-2.40;68.40;-0.70;101192.00;;;;5091757;28;20452;-73
2021/01/11 02:55:52;;;;;;;28.77;24.65;;;-2.50;68.70;-0.70;101212.00;;;;5117548;28;20442;-73
2021/01/11 02:58:50;;;;;;;35.10;26.33;;;-2.50;69.30;-0.70;101208.00;;;;5094400;28;20438;-74
2021/01/11 03:01:19;;;;;;;29.52;24.63;;;-2.50;69.70;-0.70;66086.00;;;;5091274;28;20472;-74
2021/01/11 03:03:50;;;;;;;31.00;25.13;;;-2.40;69.40;-0.70;101202.00;;;;5109054;28;20424;-73
2021/01/11 03:06:18;;;;;;;30.10;24.90;;;-2.50;68.40;-0.80;101190.00;;;;5084273;28;20423;-74
2021/01/11 03:08:45;;;;;;;30.80;25.35;;;-2.60;68.10;-0.80;101182.00;;;;5084674;28;20889;-74
2021/01/11 03:11:12;;;;;;;31.35;24.75;;;-2.60;68.10;-0.80;101193.00;;;;5085966;28;20427;-73
2021/01/11 03:13:40;;;;;;;28.80;24.00;;;-2.50;68.80;-0.90;101184.00;;;;5102142;28;20509;-73
2021/01/11 03:16:07;;;;;;;28.95;24.90;;;-2.50;68.20;-0.90;101200.00;;;;5100351;28;20427;-73
2021/01/11 03:18:35;;;;;;;32.08;23.80;;;-2.50;68.80;-0.90;101197.00;;;;5085752;28;20408;-73
2021/01/11 03:21:03;;;;;;;28.40;22.75;;;-2.60;67.80;-0.90;101193.00;;;;5076276;28;20497;-74
2021/01/11 03:23:30;;;;;;;28.58;23.58;;;-2.60;68.10;-0.90;101206.00;;;;5089410;28;20468;-73
2021/01/11 03:25:57;;;;;;;30.23;24.65;;;-2.60;68.10;-0.90;101193.00;;;;5106253;27;20451;-73
2021/01/11 03:28:25;;;;;;;31.98;25.20;;;-2.60;67.80;-1.00;66042.00;;;;5085703;28;20980;-73
2021/01/11 03:30:52;;;;;;;31.60;25.90;;;-2.60;67.70;-0.90;101192.00;;;;5090586;28;20425;-73
2021/01/11 03:33:19;;;;;;;30.80;24.88;;;-2.70;67.40;-1.00;101189.00;;;;5091801;28;20427;-73
2021/01/11 03:35:47;;;;;;;31.20;24.67;;;-2.70;67.50;-1.00;101188.00;;;;5093811;28;20478;-74
2021/01/11 03:38:15;;;;;;;31.20;24.73;;;-2.70;67.60;-1.00;101183.00;;;;5089653;28;20786;-73
2021/01/11 03:40:42;;;;;;;30.10;24.05;;;-2.70;67.60;-1.00;101187.00;;;;5094803;28;20416;-73
2021/01/11 03:43:09;;;;;;;29.40;24.10;;;-2.70;67.90;-1.00;101175.00;;;;5090310;28;20422;-73
2021/01/11 03:45:36;;;;;;;27.90;23.10;;;-2.70;68.00;-1.00;101189.00;;;;5083110;28;20409;-73
2021/01/11 03:48:04;;;;;;;30.40;23.95;;;-2.60;69.00;-1.00;101191.00;;;;5092450;28;20439;-73
2021/01/11 03:50:32;;;;;;;32.65;24.30;;;-2.60;68.10;-1.00;101171.00;;;;5080136;28;20514;-73
2021/01/11 03:53:00;;;;;;;29.43;24.70;;;-2.60;68.10;-1.00;101199.00;;;;5107929;28;20420;-73
2021/01/11 03:55:27;;;;;;;29.02;23.15;;;-2.60;68.10;-1.00;101197.00;;;;5118772;28;20847;-73
2021/01/11 03:57:54;;;;;;;28.83;22.90;;;-2.60;68.50;-0.90;101183.00;;;;5104644;28;20410;-74
2021/01/11 04:00:22;;;;;;;27.10;22.25;;;-2.50;68.60;-0.90;101186.00;;;;5100585;28;20428;-73
2021/01/11 04:02:49;;;;;;;28.58;22.73;;;-2.50;68.20;-0.90;101178.00;;;;5101136;28;20424;-73
2021/01/11 04:05:17;;;;;;;26.38;22.40;;;-2.60;68.10;-0.90;101200.00;;;;5097956;28;20904;-73
2021/01/11 04:07:44;;;;;;;26.83;22.02;;;-2.50;68.20;-0.90;101190.00;;;;5102552;28;20456;-73
2021/01/11 04:10:13;;;;;;;29.13;22.60;;;-2.60;68.10;-0.90;66060.00;;;;5098130;28;20410;-73
2021/01/11 04:12:40;;;;;;;28.20;22.85;;;-2.60;68.10;217.30;156280.00;;;;5095245;28;20969;-73
2021/01/11 04:15:09;;;;;;;27.93;22.37;;;-2.60;68.10;-0.90;101190.00;;;;5105541;28;20457;-74
2021/01/11 04:17:37;;;;;;;25.13;21.65;;;-2.60;68.10;-0.90;101182.00;;;;5087775;28;20423;-74
2021/01/11 04:20:06;;;;;;;28.77;22.80;;;-2.60;68.10;-0.90;101179.00;;;;5098870;28;20976;-74
2021/01/11 04:22:34;;;;;;;27.37;22.20;;;-2.60;68.10;-0.90;101179.00;;;;5092063;28;20865;-74
2021/01/11 04:25:03;;;;;;;28.92;23.08;;;-2.60;68.10;-0.90;101169.00;;;;5094539;28;20416;-74
2021/01/11 04:27:31;;;;;;;26.92;22.05;;;-2.60;68.10;-0.90;101174.00;;;;5100760;28;20414;-74
2021/01/11 04:29:59;;;;;;;26.98;22.00;;;-2.60;67.60;-0.90;101168.00;;;;5082853;28;20454;-74
2021/01/11 04:32:26;;;;;;;26.73;21.55;;;-2.60;67.50;-0.90;101186.00;;;;5095476;28;20418;-74
2021/01/11 04:34:54;;;;;;;27.73;22.63;;;-2.60;67.90;-0.90;101175.00;;;;5086852;28;20446;-74
2021/01/11 04:37:21;;;;;;;26.17;21.60;;;-2.60;67.70;-0.90;101156.00;;;;5078179;28;20414;-74
2021/01/11 04:39:49;;;;;;;28.00;22.30;;;-2.70;67.00;-1.00;101164.00;;;;5090529;28;20483;-74
2021/01/11 04:42:28;;;;;;;25.80;21.20;;;-2.60;67.20;-1.00;101166.00;;;;5089956;28;20426;-74
2021/01/11 04:44:57;;;;;;;27.80;21.63;;;-2.70;66.60;-1.10;101178.00;;;;5091471;28;20439;-73
2021/01/11 04:47:25;;;;;;;27.90;22.10;;;-2.80;66.20;-1.10;101173.00;;;;5073070;28;20441;-73
2021/01/11 04:49:53;;;;;;;24.88;20.92;;;-2.80;66.60;-1.10;101190.00;;;;5088432;28;20442;-74
2021/01/11 04:52:21;;;;;;;27.53;21.40;;;-2.80;66.50;-1.10;101164.00;;;;5104834;28;20414;-74
2021/01/11 04:54:50;;;;;;;26.30;21.05;;;-2.80;66.60;-1.10;101163.00;;;;5099709;28;20418;-74
2021/01/11 04:57:22;;;;;;;27.30;20.90;;;-2.80;66.90;-1.10;101160.00;;;;5093042;28;20925;-73
2021/01/11 04:59:51;;;;;;;25.70;20.73;;;-2.70;67.30;-1.10;101157.00;;;;5091985;28;20466;-74
2021/01/11 05:02:22;;;;;;;27.10;21.13;;;-2.70;67.00;-1.20;101154.00;;;;5079737;28;20420;-74
2021/01/11 05:04:49;;;;;;;26.10;21.35;;;-2.80;66.60;-1.10;101167.00;;;;5078525;28;20451;-74
2021/01/11 05:07:22;;;;;;;27.52;22.13;;;-2.80;67.10;-1.10;101164.00;;;;5080387;28;20430;-74
2021/01/11 05:09:49;;;;;;;26.98;21.65;;;-2.80;67.30;-1.10;101157.00;;;;5092291;28;20506;-74
2021/01/11 05:12:17;;;;;;;27.20;21.88;;;-2.80;67.20;-1.10;66009.00;;;;5103247;28;20424;-74
2021/01/11 05:14:44;;;;;;;27.50;22.77;;;-2.80;66.90;-1.10;101151.00;;;;5099134;28;20452;-74
2021/01/11 05:17:12;;;;;;;27.65;21.40;;;-2.80;67.40;-1.10;101152.00;;;;5100686;28;20453;-74
2021/01/11 05:19:40;;;;;;;29.10;21.92;;;-2.80;67.20;-1.10;101160.00;;;;5092491;28;20494;-74
2021/01/11 05:22:09;;;;;;;28.05;20.90;;;-2.80;66.70;-1.10;101163.00;;;;5105501;27;20461;-75
2021/01/11 05:24:38;;;;;;;29.77;21.73;;;-2.80;66.70;-1.10;65992.00;;;;5092074;28;20905;-73
2021/01/11 05:27:08;;;;;;;27.85;22.63;;;-2.80;66.40;-1.20;101167.00;;;;5084502;28;20405;-73
2021/01/11 05:29:38;;;;;;;27.50;21.73;;;-2.80;66.20;-1.20;101166.00;;;;5094151;28;20440;-74
2021/01/11 05:32:07;;;;;;;29.08;22.02;;;-2.80;66.00;-1.20;101155.00;;;;5094089;28;20569;-74
2021/01/11 05:34:50;;;;;;;25.88;21.52;;;-2.80;66.00;-1.20;101170.00;;;;5098753;28;20420;-74
2021/01/11 05:37:38;;;;;;;26.92;22.27;;;-2.80;66.00;-1.20;101168.00;;;;5096376;28;20445;-74
2021/01/11 05:40:10;;;;;;;26.90;21.50;;;-2.80;66.20;-1.20;101167.00;;;;5095765;28;20464;-74
2021/01/11 05:42:39;;;;;;;28.08;22.25;;;-2.80;66.30;-1.20;101182.00;;;;5108372;28;20414;-75
2021/01/11 05:45:12;;;;;;;28.63;23.60;;;-2.90;65.80;-1.20;101157.00;;;;5107826;28;20416;-74
2021/01/11 05:48:07;;;;;;;29.58;23.70;;;-3.00;65.90;-1.30;101170.00;;;;5099595;28;20446;-74
2021/01/11 05:50:38;;;;;;;31.23;24.05;;;-3.10;65.90;-1.30;101175.00;;;;5102836;28;20855;-75
2021/01/11 05:53:17;;;;;;;30.70;24.50;;;-3.20;66.60;-1.30;101182.00;;;;5089940;28;20415;-76
2021/01/11 05:55:45;;;;;;;33.03;25.38;;;-3.20;66.90;-1.30;65959.00;;;;5088098;28;20509;-75
2021/01/11 05:58:13;;;;;;;30.00;25.13;;;-3.20;66.90;-1.30;101182.00;;;;5083856;28;20457;-75
2021/01/11 06:00:42;;;;;;;33.08;25.10;;;-3.10;66.70;-1.30;65965.00;;;;5091263;28;20462;-75
2021/01/11 06:03:11;;;;;;;30.15;23.33;;;-3.10;66.30;-1.40;101197.00;;;;5090852;28;20422;-75
2021/01/11 06:05:40;;;;;;;30.13;23.50;;;-3.20;66.40;-1.40;101186.00;;;;5084130;28;20433;-75
2021/01/11 06:08:11;;;;;;;28.80;23.48;;;-3.30;67.20;-1.40;101180.00;;;;5084342;28;20925;-74
2021/01/11 06:10:38;;;;;;;30.48;23.63;;;-3.30;67.50;-1.40;101186.00;;;;5078066;28;20427;-75
2021/01/11 06:13:08;;;;;;;29.50;24.17;;;-3.30;67.60;-1.40;65941.00;;;;5087956;28;20434;-74
2021/01/11 06:15:37;;;;;;;28.00;22.63;;;-3.20;67.90;-1.40;101177.00;;;;5093132;28;20452;-74
2021/01/11 06:18:09;;;;;;;30.63;24.33;;;-3.00;67.80;-1.30;101186.00;;;;5113599;27;20466;-75
2021/01/11 06:20:43;;;;;;;29.05;23.33;;;-3.00;67.40;-1.30;101185.00;;;;5089039;28;20445;-74
2021/01/11 06:23:12;;;;;;;28.98;22.35;;;-3.00;66.80;-1.30;101170.00;;;;5091048;28;20440;-75
2021/01/11 06:25:43;;;;;;;30.25;23.92;;;-3.00;66.90;-1.30;101178.00;;;;5098627;28;20427;-73
2021/01/11 06:28:13;;;;;;;29.63;23.00;;;-3.00;67.10;-1.30;101194.00;;;;5089567;28;20509;-74
2021/01/11 06:30:46;;;;;;;28.88;22.85;;;-3.10;66.30;-1.30;101168.00;;;;5087999;28;20522;-74
2021/01/11 06:33:25;;;;;;;29.97;23.80;;;-3.10;66.30;-1.30;101164.00;;;;5090675;28;20497;-74
2021/01/11 06:35:54;;;;;;;27.83;22.63;;;-3.00;66.30;-1.30;101174.00;;;;5085802;28;20471;-74
2021/01/11 06:38:31;;;;;;;28.50;23.55;;;-3.00;66.60;-1.30;101184.00;;;;5085396;28;20408;-74
2021/01/11 06:41:14;;;;;;;30.17;23.65;;;-2.90;66.10;-1.30;101180.00;;;;5088107;28;20928;-74
2021/01/11 06:43:47;;;;;;;31.13;23.13;;;-3.00;65.80;-1.30;101160.00;;;;5084324;28;20422;-74
2021/01/11 06:46:44;;;;;;;29.58;23.90;;;-3.00;66.40;-1.30;101157.00;;;;5119424;28;20418;-74
2021/01/11 06:49:25;;;;;;;26.58;22.05;;;-3.00;66.40;-1.50;101144.00;;;;5079398;28;20451;-74
2021/01/11 06:52:05;;;;;;;29.60;23.52;;;-3.10;65.50;-1.40;101156.00;;;;5076273;28;20930;-74
2021/01/11 06:54:45;;;;;;;29.23;23.05;;;-3.10;65.60;-1.40;101136.00;;;;5083515;28;20431;-74
2021/01/11 06:57:17;;;;;;;26.15;21.73;;;-3.10;66.10;-1.30;101150.00;;;;5089590;28;20420;-74
2021/01/11 06:59:47;;;;;;;31.10;22.95;;;-3.10;66.60;-1.30;101138.00;;;;5078199;28;20901;-74
2021/01/11 07:02:21;;;;;;;30.35;23.17;;;-3.00;66.20;-1.30;101143.00;;;;5086073;28;20487;-74
2021/01/11 07:04:49;;;;;;;26.15;22.00;;;-3.10;65.60;-1.30;101137.00;;;;5092688;28;20545;-74
2021/01/11 07:07:23;;;;;;;29.67;22.73;;;-3.10;65.80;-1.40;101144.00;;;;5090499;28;20454;-74
2021/01/11 07:09:57;;;;;;;36.08;23.52;;;-3.10;65.60;-1.30;101144.00;;;;5085662;28;20410;-74
2021/01/11 07:12:25;;;;;;;31.40;22.48;;;-3.10;66.70;-1.30;101146.00;;;;5101057;28;20965;-74
2021/01/11 07:15:04;;;;;;;28.27;22.65;;;-2.90;67.80;-1.20;101125.00;;;;5096609;28;20435;-74
2021/01/11 07:17:37;;;;;;;30.37;22.97;;;-2.90;66.60;-1.30;101145.00;;;;5105629;27;20415;-75
2021/01/11 07:20:07;;;;;;;27.48;21.95;;;-2.90;65.40;-1.30;101145.00;;;;5091825;28;20456;-75
2021/01/11 07:22:38;;;;;;;30.60;23.50;;;-3.00;64.70;-1.40;101172.00;;;;5085501;28;20972;-75
2021/01/11 07:25:18;;;;;;;29.03;23.80;;;-3.10;64.30;-1.40;101173.00;;;;5093764;28;20419;-75
2021/01/11 07:27:46;;;;;;;34.35;27.70;;;-3.30;64.40;-1.40;101192.00;;;;5082363;28;20409;-74
2021/01/11 07:30:16;;;;;;;36.95;26.63;;;-3.30;64.80;-1.40;101188.00;;;;5091874;28;20448;-74
2021/01/11 07:32:43;;;;;;;37.05;27.85;;;-3.30;65.60;-1.40;101175.00;;;;5089414;28;21227;-74
2021/01/11 07:35:11;;;;;;;34.00;26.50;;;-3.30;65.50;-1.40;101189.00;;;;5097453;28;20429;-75
2021/01/11 07:37:40;;;;;;;34.50;26.33;;;-3.30;65.60;-1.30;101203.00;;;;5094661;28;20422;-75
2021/01/11 07:40:09;;;;;;;34.65;27.08;;;-3.20;65.30;-1.20;101187.00;;;;5102378;28;20456;-74
2021/01/11 07:42:37;;;;;;;33.25;25.80;;;-3.10;65.30;-1.10;101185.00;;;;5087402;28;20458;-75
2021/01/11 07:45:10;;;;;;;34.72;26.15;;;-3.00;64.70;-1.10;101175.00;;;;5091111;28;20425;-76
2021/01/11 07:47:38;;;;;;;32.97;25.48;;;-2.90;64.40;-1.00;66037.00;;;;5082466;28;20463;-74
2021/01/11 07:50:08;;;;;;;32.10;25.40;;;-2.80;64.30;-0.90;66063.00;;;;5103552;28;20546;-74
2021/01/11 07:52:35;;;;;;;32.58;25.42;;;-2.70;63.60;-0.80;101169.00;;;;5106095;27;20454;-74
2021/01/11 07:55:06;;;;;;;30.33;24.00;;;-2.80;63.20;-0.90;101183.00;;;;5097353;28;20427;-74
2021/01/11 07:57:34;;;;;;;32.25;25.08;;;-2.80;63.30;-0.80;101173.00;;;;5082704;28;20493;-74
2021/01/11 08:00:06;;;;;;;31.60;25.55;;;-2.80;63.40;-0.80;101167.00;;;;5090977;28;20417;-74
2021/01/11 08:02:44;;;;;;;34.03;25.95;;;-2.70;63.50;-0.80;101179.00;;;;5098150;28;20428;-74
2021/01/11 08:05:21;;;;;;;32.55;24.92;;;-2.60;63.10;-0.70;101163.00;;;;5095189;28;20481;-74
2021/01/11 08:07:52;;;;;;;32.03;24.83;;;-2.50;63.20;-0.60;101173.00;;;;5094101;28;20478;-75
2021/01/11 08:10:24;;;;;;;30.23;24.13;;;-2.50;64.10;-0.40;101162.00;;;;5094435;28;20505;-74
2021/01/11 08:12:51;;;;;;;27.40;22.60;;;-2.30;65.10;-0.30;101160.00;;;;5110063;28;20425;-74
2021/01/11 08:15:20;;;;;;;28.10;21.23;;;-2.10;64.70;-0.10;101166.00;;;;5109394;28;20417;-75
2021/01/11 08:17:47;;;;;;;33.47;22.80;;;-2.00;64.40;-0.10;101155.00;;;;5103401;28;20432;-74
2021/01/11 08:20:24;;;;;;;30.63;23.33;;;-2.00;63.90;0.00;101175.00;;;;5129140;27;20488;-74
2021/01/11 08:22:52;;;;;;;30.17;23.67;;;-1.90;64.30;0.10;101156.00;;;;5090694;28;20457;-74
2021/01/11 08:25:20;;;;;;;28.75;23.38;;;-1.80;64.30;0.00;101164.00;;;;5105301;28;20419;-73
2021/01/11 08:27:51;;;;;;;27.98;22.13;;;-1.60;64.10;0.20;101163.00;;;;5111660;28;20678;-74
2021/01/11 08:30:24;;;;;;;28.40;23.17;;;-1.60;63.60;0.20;101157.00;;;;5106414;28;20421;-74
2021/01/11 08:32:53;;;;;;;28.47;23.07;;;-1.50;63.40;0.30;101164.00;;;;5105192;28;20415;-75
2021/01/11 08:35:23;;;;;;;27.33;20.98;;;-1.40;63.20;0.30;101164.00;;;;5095659;28;20479;-75
2021/01/11 08:37:50;;;;;;;26.35;21.98;;;-1.40;62.90;0.40;101172.00;;;;5091150;28;20433;-74
2021/01/11 08:40:27;;;;;;;28.03;21.40;;;-1.30;63.00;0.40;101175.00;;;;5103199;28;20455;-75
2021/01/11 08:43:09;;;;;;;28.50;22.52;;;-1.20;62.80;0.50;101161.00;;;;5091127;28;20453;-75
2021/01/11 08:45:39;;;;;;;26.52;21.88;;;-1.20;62.50;0.60;101162.00;;;;5079346;28;20484;-75
2021/01/11 08:48:08;;;;;;;28.98;22.30;;;-1.10;62.20;0.70;101159.00;;;;5099418;28;20428;-74
2021/01/11 08:50:38;;;;;;;26.85;21.10;;;-1.00;62.10;0.90;66448.00;;;;5094648;28;20505;-75
2021/01/11 08:53:20;;;;;;;24.63;20.77;;;-0.80;62.00;1.00;101161.00;;;;5095874;28;20423;-76
2021/01/11 08:56:00;;;;;;;29.73;22.00;;;-0.80;61.20;1.00;101163.00;;;;5095657;28;20421;-74
2021/01/11 08:58:31;;;;;;;26.75;21.63;;;-0.80;60.60;1.00;101158.00;;;;5107817;28;20878;-75
2021/01/11 09:01:12;;;;;;;28.30;22.38;;;-0.80;60.60;0.90;101168.00;;;;5086696;28;20426;-74
2021/01/11 09:03:44;;;;;;;26.23;22.05;;;-0.70;60.80;1.20;101185.00;;;;5089756;28;20496;-75
2021/01/11 09:06:12;;;;;;;25.23;21.23;;;-0.60;60.70;1.40;101171.00;;;;5090403;28;20444;-75
2021/01/11 09:08:40;;;;;;;28.33;21.75;;;-0.50;59.80;1.50;101173.00;;;;5091461;28;20996;-73
2021/01/11 09:11:11;;;;;;;26.13;21.33;;;-0.40;60.00;1.60;101180.00;;;;5092103;28;20960;-74
2021/01/11 09:13:39;;;;;;;25.75;21.00;;;-0.30;59.80;1.70;101176.00;;;;5101182;28;20518;-75
2021/01/11 09:16:14;;;;;;;26.17;20.88;;;-0.20;59.30;1.80;101175.00;;;;5089669;28;20444;-75
2021/01/11 09:18:42;;;;;;;23.60;20.48;;;-0.10;58.80;217.30;157382.00;;;;5098998;28;20410;-75
2021/01/11 09:21:09;;;;;;;23.83;20.25;;;-0.10;59.10;2.00;101190.00;;;;5125602;27;20430;-75
2021/01/11 09:23:37;;;;;;;25.25;19.15;;;0.10;58.90;2.20;66739.00;;;;5120179;28;20415;-76
2021/01/11 09:26:04;;;;;;;24.02;20.05;;;0.30;58.70;2.30;101174.00;;;;5109362;28;20418;-74
2021/01/11 09:28:31;;;;;;;26.08;20.58;;;0.50;57.90;2.40;101186.00;;;;5104700;28;20437;-75
2021/01/11 09:31:00;;;;;;;24.20;20.80;;;0.60;57.60;2.40;101185.00;;;;5123347;27;20429;-75
2021/01/11 09:33:28;;;;;;;27.30;21.65;;;0.70;56.40;2.30;101186.00;;;;5106754;28;20492;-75
2021/01/11 09:35:55;;;;;;;25.27;21.53;;;0.60;56.80;2.40;101192.00;;;;5111203;28;20513;-75
2021/01/11 09:38:23;;;;;;;25.33;21.75;;;0.60;57.70;2.30;101194.00;;;;5105307;28;20847;-74
2021/01/11 09:40:50;;;;;;;23.70;21.13;;;0.60;57.80;2.10;101202.00;;;;5108241;28;20433;-74
2021/01/11 09:43:17;;;;;;;25.30;22.02;;;0.50;57.80;2.10;101205.00;;;;5105541;28;20500;-74
2021/01/11 09:45:45;;;;;;;24.65;20.95;;;0.40;58.80;2.00;101200.00;;;;5105344;28;20431;-75
2021/01/11 09:48:13;;;;;;;25.48;21.60;;;0.40;59.00;217.30;157511.00;;;;5105957;28;20450;-74
2021/01/11 09:50:40;;;;;;;24.95;20.90;;;0.50;59.40;1.90;101194.00;;;;5106068;28;20429;-74
2021/01/11 09:53:08;;;;;;;24.70;21.07;;;0.30;58.90;217.30;157404.00;;;;5116139;28;20414;-74
2021/01/11 09:55:35;;;;;;;23.65;19.77;;;0.30;58.70;217.30;157469.00;;;;5116178;28;20418;-75
2021/01/11 09:58:04;;;;;;;24.30;20.93;;;0.30;59.70;2.00;101172.00;;;;5085727;28;20438;-74
2021/01/11 10:00:32;;;;;;;24.83;20.98;;;0.40;59.40;2.20;101185.00;;;;5110450;28;20517;-74
2021/01/11 10:02:59;;;;;;;24.77;20.70;;;0.50;58.50;2.20;101187.00;;;;5114066;28;20404;-75
2021/01/11 10:05:29;;;;;;;23.55;20.10;;;0.60;58.30;2.50;101196.00;;;;5117126;28;20429;-74
2021/01/11 10:07:57;;;;;;;23.17;20.40;;;0.80;57.10;2.60;101194.00;;;;5125766;28;20463;-74
2021/01/11 10:10:24;;;;;;;23.25;20.23;;;1.10;55.80;2.90;101191.00;;;;5109294;28;20462;-74
2021/01/11 10:12:54;;;;;;;25.13;20.88;;;1.30;55.40;3.10;101176.00;;;;5115523;28;20421;-76
2021/01/11 10:15:22;;;;;;;25.63;20.50;;;1.50;53.50;3.40;101171.00;;;;5112844;28;20412;-76
2021/01/11 10:17:49;;;;;;;24.77;21.05;;;1.60;53.60;3.80;101146.00;;;;5115951;28;20422;-76
2021/01/11 10:20:17;;;;;;;24.67;20.55;;;1.90;52.50;3.90;101149.00;;;;5120440;28;20424;-76
2021/01/11 10:22:45;;;;;;;23.05;19.63;;;2.10;51.40;4.00;101179.00;;;;5110033;28;20457;-76
2021/01/11 10:25:15;;;;;;;22.67;19.80;;;2.20;50.00;4.00;101163.00;;;;5080173;28;20415;-76
2021/01/11 10:27:42;;;;;;;26.42;20.60;;;2.20;50.10;4.40;101163.00;;;;5080331;28;20427;-77
2021/01/11 10:30:11;;;;;;;25.30;20.98;;;2.40;51.60;4.50;101174.00;;;;5084405;28;20419;-74
2021/01/11 10:32:40;;;;;;;22.45;20.05;;;2.50;50.60;4.60;101155.00;;;;5085202;28;20449;-76
2021/01/11 10:35:08;;;;;;;23.83;19.85;;;2.50;50.20;4.60;101163.00;;;;5093829;28;20459;-76
2021/01/11 10:37:36;;;;;;;25.33;19.87;;;2.50;49.70;4.20;101148.00;;;;5092096;28;20422;-75
2021/01/11 10:40:06;;;;;;;23.77;20.50;;;2.30;49.30;4.00;101146.00;;;;5088451;28;20473;-75
2021/01/11 10:42:34;;;;;;;22.42;20.02;;;2.20;50.30;3.90;101141.00;;;;5106803;28;20543;-75
2021/01/11 10:45:01;;;;;;;24.80;20.88;;;2.10;50.60;3.70;101136.00;;;;5096811;28;20853;-75
2021/01/11 10:47:29;;;;;;;24.70;20.80;;;2.00;51.10;3.80;101139.00;;;;5085301;28;20577;-75
2021/01/11 10:49:56;;;;;;;24.50;21.90;;;2.00;52.10;3.70;101134.00;;;;5091124;28;20422;-75